Map

Track Data

SID SEASON NUMBER BASIN SUBBASIN NAME ISO_TIME NATURE LAT LON WMO_WIND WMO_PRES WMO_AGENCY TRACK_TYPE DIST2LAND LANDFALL IFLAG USA_AGENCY USA_ATCF_ID USA_LAT USA_LON USA_RECORD USA_STATUS USA_WIND USA_PRES USA_SSHS USA_R34_NE USA_R34_SE USA_R34_SW USA_R34_NW USA_R50_NE USA_R50_SE USA_R50_SW USA_R50_NW USA_R64_NE USA_R64_SE USA_R64_SW USA_R64_NW USA_POCI USA_ROCI USA_RMW USA_EYE TOKYO_LAT TOKYO_LON TOKYO_GRADE TOKYO_WIND TOKYO_PRES TOKYO_R50_DIR TOKYO_R50_LONG TOKYO_R50_SHORT TOKYO_R30_DIR TOKYO_R30_LONG TOKYO_R30_SHORT TOKYO_LAND CMA_LAT CMA_LON CMA_CAT CMA_WIND CMA_PRES HKO_LAT HKO_LON HKO_CAT HKO_WIND HKO_PRES NEWDELHI_LAT NEWDELHI_LON NEWDELHI_GRADE NEWDELHI_WIND NEWDELHI_PRES NEWDELHI_CI NEWDELHI_DP NEWDELHI_POCI REUNION_LAT REUNION_LON REUNION_TYPE REUNION_WIND REUNION_PRES REUNION_TNUM REUNION_CI REUNION_RMW REUNION_R34_NE REUNION_R34_SE REUNION_R34_SW REUNION_R34_NW REUNION_R50_NE REUNION_R50_SE REUNION_R50_SW REUNION_R50_NW REUNION_R64_NE REUNION_R64_SE REUNION_R64_SW REUNION_R64_NW BOM_LAT BOM_LON BOM_TYPE BOM_WIND BOM_PRES BOM_TNUM BOM_CI BOM_RMW BOM_R34_NE BOM_R34_SE BOM_R34_SW BOM_R34_NW BOM_R50_NE BOM_R50_SE BOM_R50_SW BOM_R50_NW BOM_R64_NE BOM_R64_SE BOM_R64_SW BOM_R64_NW BOM_ROCI BOM_POCI BOM_EYE BOM_POS_METHOD BOM_PRES_METHOD NADI_LAT NADI_LON NADI_CAT NADI_WIND NADI_PRES WELLINGTON_LAT WELLINGTON_LON WELLINGTON_WIND WELLINGTON_PRES DS824_LAT DS824_LON DS824_STAGE DS824_WIND DS824_PRES TD9636_LAT TD9636_LON TD9636_STAGE TD9636_WIND TD9636_PRES TD9635_LAT TD9635_LON TD9635_WIND TD9635_PRES TD9635_ROCI NEUMANN_LAT NEUMANN_LON NEUMANN_CLASS NEUMANN_WIND NEUMANN_PRES MLC_LAT MLC_LON MLC_CLASS MLC_WIND MLC_PRES USA_GUST BOM_GUST BOM_GUST_PER REUNION_GUST REUNION_GUST_PER USA_SEAHGT USA_SEARAD_NE USA_SEARAD_SE USA_SEARAD_SW USA_SEARAD_NW STORM_SPEED STORM_DIR
1878344S11071 1879 41 SI MM NOT_NAMED 1878-12-10 00:00:00 TS -10.5000 71.3000 main 1810 1758 _________O____ -1 -10.5000 71.3000 TC 12 205
1878344S11071 1879 41 SI MM NOT_NAMED 1878-12-10 03:00:00 TS -11.0551 71.0402 main 1743 1692 _________P____ -1 -11.0551 71.0402 TC 12 204
1878344S11071 1879 41 SI MM NOT_NAMED 1878-12-10 06:00:00 TS -11.6000 70.8000 main 1692 1642 _________O____ -1 -11.6000 70.8000 TC 12 202
1878344S11071 1879 41 SI MM NOT_NAMED 1878-12-10 09:00:00 TS -12.1350 70.5923 main 1642 1586 _________P____ -1 -12.1350 70.5923 TC 12 200
1878344S11071 1879 41 SI MM NOT_NAMED 1878-12-10 12:00:00 TS -12.7000 70.4000 main 1586 1532 _________O____ -1 -12.7000 70.4000 TC 13 198
1878344S11071 1879 41 SI MM NOT_NAMED 1878-12-10 15:00:00 TS -13.3350 70.1999 main 1532 1474 _________P____ -1 -13.3350 70.1999 TC 14 197
1878344S11071 1879 41 SI MM NOT_NAMED 1878-12-10 18:00:00 TS -14.0000 70.0000 main 1474 1423 _________O____ -1 -14.0000 70.0000 TC 14 197
1878344S11071 1879 41 SI MM NOT_NAMED 1878-12-10 21:00:00 TS -14.6275 69.7924 main 1423 1368 _________P____ -1 -14.6275 69.7924 TC 14 197
1878344S11071 1879 41 SI MM NOT_NAMED 1878-12-11 00:00:00 TS -15.3000 69.6000 main 1368 1316 _________O____ -1 -15.3000 69.6000 TC 15 194
1878344S11071 1879 41 SI MM NOT_NAMED 1878-12-11 03:00:00 TS -16.0775 69.4201 main 1311 1269 _________P____ -1 -16.0775 69.4201 TC 16 190
1878344S11071 1879 41 SI MM NOT_NAMED 1878-12-11 06:00:00 TS -16.9000 69.3000 main 1269 1243 _________O____ -1 -16.9000 69.3000 TC 16 185
1878344S11071 1879 41 SI MM NOT_NAMED 1878-12-11 09:00:00 TS -17.7075 69.2624 main 1243 1222 _________P____ -1 -17.7075 69.2624 TC 16 0
1878344S11071 1879 41 SI MM NOT_NAMED 1878-12-11 12:00:00 TS -18.5000 69.3000 main 1222 1211 _________O____ -1 -18.5000 69.3000 TC 16 176
1878344S11071 1879 41 SI MM NOT_NAMED 1878-12-11 15:00:00 TS -19.2574 69.3627 main 1218 1212 _________P____ -1 -19.2574 69.3627 TC 15 173
1878344S11071 1879 41 SI MM NOT_NAMED 1878-12-11 18:00:00 TS -20.0000 69.5000 main 1221 1220 _________O____ -1 -20.0000 69.5000 TC 16 167
1878344S11071 1879 41 SI MM NOT_NAMED 1878-12-11 21:00:00 TS -20.7725 69.7273 main 1239 1239 _________P____ -1 -20.7725 69.7273 TC 16 163
1878344S11071 1879 41 SI MM NOT_NAMED 1878-12-12 00:00:00 TS -21.5000 70.0000 main 1273 1273 _________O____ -1 -21.5000 70.0000 TC 14 160
1878344S11071 1879 41 SI MM NOT_NAMED 1878-12-12 03:00:00 TS -22.1224 70.2429 main 1300 1300 _________P____ -1 -22.1224 70.2429 TC 13 159
1878344S11071 1879 41 SI MM NOT_NAMED 1878-12-12 06:00:00 TS -22.7000 70.5000 main 1340 1340 _________O____ -1 -22.7000 70.5000 TC 13 157
1878344S11071 1879 41 SI MM NOT_NAMED 1878-12-12 09:00:00 TS -23.3150 70.7926 main 1382 1382 _________P____ -1 -23.3150 70.7926 TC 13 155
1878344S11071 1879 41 SI MM NOT_NAMED 1878-12-12 12:00:00 TS -23.9000 71.1000 main 1426 1426 _________O____ -1 -23.9000 71.1000 TC 12 153
1878344S11071 1879 41 SI MM NOT_NAMED 1878-12-12 15:00:00 TS -24.4149 71.4003 main 1470 1470 _________P____ -1 -24.4149 71.4003 TC 11 151
1878344S11071 1879 41 SI MM NOT_NAMED 1878-12-12 18:00:00 TS -24.9000 71.7000 main 1515 1515 _________O____ -1 -24.9000 71.7000 TC 11 151
1878344S11071 1879 41 SI MM NOT_NAMED 1878-12-12 21:00:00 TS -25.3547 71.9638 main 1560 1560 _________P____ -1 -25.3547 71.9638 TC 11 152
1878344S11071 1879 41 SI MM NOT_NAMED 1878-12-13 00:00:00 TS -25.9000 72.3000 main 1607 1607 _________O____ -1 -25.9000 72.3000 TC 15 150
1878344S11071 1879 41 SI MM NOT_NAMED 1878-12-13 03:00:00 TS -26.6626 72.8047 main 1684 1684 _________P____ -1 -26.6626 72.8047 TC 19 148
1878344S11071 1879 41 SI MM NOT_NAMED 1878-12-13 06:00:00 TS -27.5000 73.4000 main 1773 1773 _________O____ -1 -27.5000 73.4000 TC 19 147
1878344S11071 1879 41 SI MM NOT_NAMED 1878-12-13 09:00:00 TS -28.2646 73.9785 main 1862 1862 _________P____ -1 -28.2646 73.9785 TC 18 145
1878344S11071 1879 41 SI MM NOT_NAMED 1878-12-13 12:00:00 TS -29.0000 74.6000 main 1948 1948 _________O____ -1 -29.0000 74.6000 TC 18 142
1878344S11071 1879 41 SI MM NOT_NAMED 1878-12-13 15:00:00 TS -29.7146 75.2710 main 2043 2043 _________P____ -1 -29.7146 75.2710 TC 19 139
1878344S11071 1879 41 SI MM NOT_NAMED 1878-12-13 18:00:00 TS -30.4000 76.0000 main 2131 2078 _________O____ -1 -30.4000 76.0000 TC 19 136
1878344S11071 1879 41 SI MM NOT_NAMED 1878-12-13 21:00:00 TS -31.0586 76.7827 main 2071 2024 _________P____ -1 -31.0586 76.7827 TC 19 133
1878344S11071 1879 41 SI MM NOT_NAMED 1878-12-14 00:00:00 TS -31.7000 77.6000 main 2024 _________O____ -1 -31.7000 77.6000 TC 19 133

About IBTrACS Database

This database is a web-friendly format of International Best Track Archive for Climate Stewardship (IBTrACS), a global best track data archive curated by NOAA dating back to 1842.

Updated: 2021-10-25